createdAt,value
2022-07-27T00:00:48.385Z,20.80
2022-07-27T00:03:15.385Z,20.90
2022-07-27T00:05:42.536Z,20.80
2022-07-27T00:08:09.525Z,20.70
2022-07-27T00:10:37.213Z,20.80
2022-07-27T00:13:05.149Z,20.80
2022-07-27T00:15:32.863Z,20.80
2022-07-27T00:18:01.011Z,20.80
2022-07-27T00:20:28.970Z,20.80
2022-07-27T00:22:56.496Z,20.90
2022-07-27T00:25:24.034Z,20.90
2022-07-27T00:27:50.816Z,20.90
2022-07-27T00:30:17.552Z,20.80
2022-07-27T00:32:44.297Z,20.80
2022-07-27T00:35:11.611Z,20.80
2022-07-27T00:37:38.456Z,20.80
2022-07-27T00:40:06.051Z,20.80
2022-07-27T00:42:33.001Z,20.80
2022-07-27T00:45:00.118Z,20.80
2022-07-27T00:47:27.214Z,20.80
2022-07-27T00:49:55.369Z,20.80
2022-07-27T00:52:23.257Z,20.90
2022-07-27T00:54:50.431Z,20.80
2022-07-27T00:57:17.175Z,20.90
2022-07-27T00:59:44.033Z,20.90
2022-07-27T01:02:12.019Z,20.90
2022-07-27T01:04:41.102Z,20.90
2022-07-27T01:07:15.013Z,20.90
2022-07-27T01:09:57.439Z,20.80
2022-07-27T01:12:31.265Z,20.80
2022-07-27T01:14:59.206Z,20.80
2022-07-27T01:17:29.063Z,20.80
2022-07-27T01:19:55.752Z,20.80
2022-07-27T01:22:22.433Z,20.80
2022-07-27T01:24:50.222Z,20.70
2022-07-27T01:27:17.194Z,20.70
2022-07-27T01:29:44.903Z,20.60
2022-07-27T01:32:11.899Z,20.70
2022-07-27T01:34:39.071Z,20.60
2022-07-27T01:37:06.085Z,20.60
2022-07-27T01:39:33.138Z,20.60
2022-07-27T01:42:00.843Z,20.70
2022-07-27T01:44:27.746Z,20.70
2022-07-27T01:46:54.500Z,20.70
2022-07-27T01:49:21.296Z,20.70
2022-07-27T01:51:48.016Z,20.70
2022-07-27T01:54:16.962Z,20.70
2022-07-27T01:56:43.952Z,20.70
2022-07-27T01:59:16.286Z,20.70
2022-07-27T02:01:44.170Z,20.70
2022-07-27T02:04:10.890Z,20.60
2022-07-27T02:06:37.537Z,20.50
2022-07-27T02:09:04.192Z,20.50
2022-07-27T02:11:49.356Z,20.40
2022-07-27T02:14:16.580Z,20.40
2022-07-27T02:16:43.559Z,20.40
2022-07-27T02:19:11.081Z,20.40
2022-07-27T02:21:38.051Z,20.50
2022-07-27T02:24:05.106Z,20.40
2022-07-27T02:26:31.740Z,20.40
2022-07-27T02:28:58.354Z,20.40
2022-07-27T02:31:25.201Z,20.40
2022-07-27T02:33:51.835Z,20.40
2022-07-27T02:36:19.235Z,20.40
2022-07-27T02:38:45.945Z,20.40
2022-07-27T02:41:12.582Z,20.40
2022-07-27T02:43:39.200Z,20.50
2022-07-27T02:46:06.018Z,20.40
2022-07-27T02:48:33.396Z,20.40
2022-07-27T02:51:01.806Z,20.50
2022-07-27T02:53:29.419Z,20.50
2022-07-27T02:55:56.301Z,20.50
2022-07-27T02:58:23.553Z,20.40
2022-07-27T03:00:52.612Z,20.40
2022-07-27T03:03:23.051Z,20.40
2022-07-27T03:05:59.613Z,20.30
2022-07-27T03:08:26.269Z,20.30
2022-07-27T03:10:52.927Z,20.20
2022-07-27T03:13:19.544Z,20.30
2022-07-27T03:15:46.243Z,20.30
2022-07-27T03:18:12.911Z,20.30
2022-07-27T03:20:39.513Z,20.40
2022-07-27T03:23:06.265Z,20.30
2022-07-27T03:25:32.965Z,20.20
2022-07-27T03:28:04.046Z,20.20
2022-07-27T03:30:32.319Z,20.20
2022-07-27T03:32:59.151Z,20.20
2022-07-27T03:35:25.858Z,20.20
2022-07-27T03:37:52.529Z,20.10
2022-07-27T03:40:19.287Z,20.10
2022-07-27T03:42:45.983Z,20.10
2022-07-27T03:45:12.597Z,20.10
2022-07-27T03:47:39.226Z,20.00
2022-07-27T03:50:06.345Z,20.10
2022-07-27T03:52:33.001Z,20.20
2022-07-27T03:54:59.670Z,20.20
2022-07-27T03:57:26.370Z,20.20
2022-07-27T03:59:53.032Z,20.20
2022-07-27T04:02:19.816Z,20.10
2022-07-27T04:04:46.540Z,20.10
2022-07-27T04:07:13.195Z,20.10
2022-07-27T04:09:39.924Z,20.10
2022-07-27T04:12:08.408Z,20.10
2022-07-27T04:14:35.596Z,20.10
2022-07-27T04:17:02.328Z,20.20
2022-07-27T04:19:29.253Z,20.30
2022-07-27T04:21:57.127Z,20.20
2022-07-27T04:24:24.082Z,20.20
2022-07-27T04:26:51.019Z,20.20
2022-07-27T04:29:20.669Z,20.20
2022-07-27T04:31:48.298Z,20.20
2022-07-27T04:34:15.139Z,20.10
2022-07-27T04:36:42.296Z,20.10
2022-07-27T04:39:09.779Z,20.10
2022-07-27T04:41:36.806Z,20.00
2022-07-27T04:44:04.249Z,19.90
2022-07-27T04:46:31.025Z,20.00
2022-07-27T04:48:58.228Z,20.00
2022-07-27T04:51:25.061Z,20.10
2022-07-27T04:53:53.932Z,20.00
2022-07-27T04:56:27.246Z,20.10
2022-07-27T04:58:55.369Z,20.10
2022-07-27T05:01:26.134Z,20.10
2022-07-27T05:03:54.487Z,20.00
2022-07-27T05:06:21.204Z,20.00
2022-07-27T05:08:47.986Z,19.90
2022-07-27T05:11:15.092Z,19.90
2022-07-27T05:13:41.942Z,20.00
2022-07-27T05:16:10.807Z,20.00
2022-07-27T05:18:38.504Z,20.00
2022-07-27T05:21:05.790Z,20.00
2022-07-27T05:23:33.073Z,20.10
2022-07-27T05:25:59.956Z,20.20
2022-07-27T05:28:26.630Z,20.10
2022-07-27T05:30:53.495Z,20.10
2022-07-27T05:33:20.243Z,20.10
2022-07-27T05:35:46.893Z,20.10
2022-07-27T05:38:13.585Z,20.10
2022-07-27T05:40:41.193Z,20.10
2022-07-27T05:43:07.804Z,20.10
2022-07-27T05:45:34.533Z,20.10
2022-07-27T05:48:01.237Z,20.10
2022-07-27T05:50:27.890Z,20.10
2022-07-27T05:52:55.069Z,20.10
2022-07-27T05:55:21.825Z,20.00
2022-07-27T05:57:48.484Z,20.10
2022-07-27T06:00:15.468Z,20.10
2022-07-27T06:02:42.256Z,20.10
2022-07-27T06:05:15.291Z,20.00
2022-07-27T06:08:03.123Z,20.10
2022-07-27T06:10:32.179Z,20.10
2022-07-27T06:12:58.966Z,20.20
2022-07-27T06:15:26.058Z,20.20
2022-07-27T06:17:53.917Z,20.10
2022-07-27T06:20:22.287Z,20.10
2022-07-27T06:22:57.688Z,20.20
2022-07-27T06:25:34.562Z,20.40
2022-07-27T06:28:02.408Z,20.40
2022-07-27T06:30:29.172Z,20.30
2022-07-27T06:32:57.350Z,20.30
2022-07-27T06:35:24.025Z,20.20
2022-07-27T06:37:52.753Z,20.20
2022-07-27T06:40:20.519Z,20.20
2022-07-27T06:42:47.709Z,20.30
2022-07-27T06:45:15.282Z,20.40
2022-07-27T06:47:49.169Z,20.30
2022-07-27T06:50:18.189Z,20.30
2022-07-27T06:55:33.293Z,20.30
2022-07-27T06:58:00.164Z,20.30
2022-07-27T07:00:26.923Z,20.20
2022-07-27T07:03:03.015Z,20.20
2022-07-27T07:05:31.966Z,19.90
2022-07-27T07:07:59.197Z,20.00
2022-07-27T07:10:26.784Z,20.10
2022-07-27T07:12:57.106Z,20.00
2022-07-27T07:15:25.186Z,20.10
2022-07-27T07:17:52.671Z,20.20
2022-07-27T07:20:19.342Z,20.10
2022-07-27T07:22:46.048Z,20.20
2022-07-27T07:25:12.809Z,20.30
2022-07-27T07:27:39.505Z,20.30
2022-07-27T07:30:07.458Z,20.30
2022-07-27T07:32:34.064Z,20.40
2022-07-27T07:35:01.519Z,20.40
2022-07-27T07:37:33.561Z,20.50
2022-07-27T07:40:18.714Z,20.50
2022-07-27T07:42:48.463Z,20.30
2022-07-27T07:45:16.183Z,20.30
2022-07-27T07:47:42.845Z,20.30
2022-07-27T07:50:09.860Z,20.40
2022-07-27T07:52:37.207Z,20.50
2022-07-27T07:55:04.457Z,20.60
2022-07-27T07:57:31.125Z,20.60
2022-07-27T07:59:57.787Z,20.50
2022-07-27T08:02:24.724Z,20.60
2022-07-27T08:04:54.292Z,20.70
2022-07-27T08:07:21.060Z,20.70
2022-07-27T08:09:47.705Z,20.60
2022-07-27T08:12:14.423Z,20.70
2022-07-27T08:14:41.112Z,20.70
2022-07-27T08:17:07.748Z,20.70
2022-07-27T08:19:39.495Z,20.90
2022-07-27T08:22:06.920Z,20.60
2022-07-27T08:24:33.766Z,20.60
2022-07-27T08:27:00.580Z,20.70
2022-07-27T08:29:35.948Z,20.60
2022-07-27T08:32:03.924Z,20.70
2022-07-27T08:34:33.053Z,20.70
2022-07-27T08:36:59.806Z,20.80
2022-07-27T08:40:27.886Z,20.80
2022-07-27T08:42:13.960Z,20.80
2022-07-27T08:44:42.042Z,20.80
2022-07-27T08:47:14.676Z,20.90
2022-07-27T08:49:44.133Z,21.00
2022-07-27T08:52:12.296Z,21.10
2022-07-27T08:54:40.476Z,21.30
2022-07-27T08:57:09.479Z,21.20
2022-07-27T08:59:37.343Z,21.30
2022-07-27T09:02:10.718Z,21.30
2022-07-27T09:04:40.657Z,21.20
2022-07-27T09:07:07.590Z,21.20
2022-07-27T09:09:47.451Z,21.30
2022-07-27T09:12:14.383Z,21.30
2022-07-27T09:14:42.354Z,21.40
2022-07-27T09:17:47.910Z,21.50
2022-07-27T09:20:19.033Z,21.60
2022-07-27T09:22:52.547Z,21.50
2022-07-27T09:26:01.552Z,21.50
2022-07-27T09:28:29.757Z,21.40
2022-07-27T09:31:09.188Z,21.50
2022-07-27T09:33:48.075Z,21.50
2022-07-27T09:36:15.498Z,21.50
2022-07-27T09:39:02.068Z,21.40
2022-07-27T09:41:50.773Z,21.40
2022-07-27T09:44:41.959Z,21.40
2022-07-27T09:47:28.170Z,21.50
2022-07-27T09:50:17.403Z,21.40
2022-07-27T09:52:44.593Z,21.40
2022-07-27T09:55:11.298Z,21.40
2022-07-27T09:57:52.135Z,21.50
2022-07-27T10:00:19.146Z,21.50
2022-07-27T10:02:45.997Z,21.50
2022-07-27T10:05:14.133Z,21.50
2022-07-27T10:07:41.088Z,21.60
2022-07-27T10:10:08.129Z,21.70
2022-07-27T10:12:35.171Z,21.60
2022-07-27T10:15:01.818Z,21.40
2022-07-27T10:17:28.978Z,21.50
2022-07-27T10:19:57.519Z,21.60
2022-07-27T10:22:53.418Z,21.50
2022-07-27T10:25:22.460Z,21.50
2022-07-27T10:28:11.894Z,21.70
2022-07-27T10:30:39.341Z,21.80
2022-07-27T10:33:14.474Z,21.80
2022-07-27T10:35:41.625Z,21.90
2022-07-27T10:38:15.521Z,21.80
2022-07-27T10:40:43.637Z,21.50
2022-07-27T10:43:21.044Z,21.50
2022-07-27T10:46:00.857Z,21.50
2022-07-27T10:48:47.511Z,21.60
2022-07-27T10:51:16.383Z,21.60
2022-07-27T10:54:12.795Z,21.70
2022-07-27T10:56:45.160Z,21.60
2022-07-27T10:59:11.782Z,21.50
2022-07-27T11:01:58.370Z,21.40
2022-07-27T11:04:25.609Z,21.40
2022-07-27T11:07:23.551Z,21.50
2022-07-27T11:12:31.371Z,21.50
2022-07-27T11:15:00.817Z,21.70
2022-07-27T11:17:54.229Z,21.80
2022-07-27T11:20:22.740Z,21.90
2022-07-27T11:25:36.047Z,22.00
2022-07-27T11:28:09.363Z,22.10
2022-07-27T11:30:36.094Z,22.00
2022-07-27T11:33:04.740Z,22.10
2022-07-27T11:35:31.380Z,22.10
2022-07-27T11:38:03.434Z,22.10
2022-07-27T11:41:12.797Z,22.10
2022-07-27T11:43:38.747Z,22.00
2022-07-27T11:46:23.633Z,22.00
2022-07-27T11:49:09.509Z,22.00
2022-07-27T11:51:40.940Z,22.00
2022-07-27T11:54:10.246Z,22.10
2022-07-27T11:56:39.971Z,22.10
2022-07-27T11:59:06.674Z,22.20
2022-07-27T12:01:39.023Z,22.20
2022-07-27T12:04:13.133Z,22.20
2022-07-27T12:06:43.271Z,22.20
2022-07-27T12:09:13.993Z,22.20
2022-07-27T12:11:59.409Z,22.20
2022-07-27T12:14:40.652Z,22.20
2022-07-27T12:17:25.840Z,22.20
2022-07-27T12:19:52.455Z,22.20
2022-07-27T12:22:30.500Z,22.20
2022-07-27T12:24:59.107Z,22.20
2022-07-27T12:27:26.405Z,22.20
2022-07-27T12:30:07.982Z,22.10
2022-07-27T12:32:43.369Z,22.00
2022-07-27T12:35:25.671Z,22.00
2022-07-27T12:38:04.523Z,22.00
2022-07-27T12:40:32.763Z,22.00
2022-07-27T12:43:05.480Z,22.00
2022-07-27T12:45:37.211Z,22.00
2022-07-27T12:48:16.574Z,22.00
2022-07-27T12:50:45.826Z,22.00
2022-07-27T12:53:14.327Z,22.00
2022-07-27T12:55:42.784Z,22.00
2022-07-27T12:58:13.630Z,22.10
2022-07-27T13:00:44.040Z,22.10
2022-07-27T13:03:11.045Z,22.10
2022-07-27T13:05:37.743Z,22.10
2022-07-27T13:08:04.960Z,22.10
2022-07-27T13:10:32.409Z,22.10
2022-07-27T13:12:59.644Z,22.30
2022-07-27T13:15:26.646Z,22.30
2022-07-27T13:17:53.452Z,22.30
2022-07-27T13:20:20.230Z,22.30
2022-07-27T13:22:47.436Z,22.30
2022-07-27T13:25:17.334Z,22.20
2022-07-27T13:27:45.859Z,22.20
2022-07-27T13:30:13.855Z,22.20
2022-07-27T13:32:41.516Z,22.20
2022-07-27T13:35:10.027Z,22.30
2022-07-27T13:37:36.697Z,22.20
2022-07-27T13:40:04.450Z,22.10
2022-07-27T13:42:31.201Z,22.10
2022-07-27T13:45:08.529Z,22.20
2022-07-27T13:47:35.951Z,22.10
2022-07-27T13:50:03.474Z,22.10
2022-07-27T13:52:30.409Z,22.20
2022-07-27T13:54:57.286Z,22.20
2022-07-27T13:57:24.114Z,22.10
2022-07-27T13:59:50.943Z,22.20
2022-07-27T14:02:22.849Z,22.20
2022-07-27T14:04:49.760Z,22.20
2022-07-27T14:07:17.153Z,22.30
2022-07-27T14:10:02.749Z,22.30
2022-07-27T14:12:29.606Z,22.40
2022-07-27T14:14:56.254Z,22.30
2022-07-27T14:17:23.173Z,22.30
2022-07-27T14:19:50.050Z,22.30
2022-07-27T14:22:16.763Z,22.30
2022-07-27T14:24:43.404Z,22.30
2022-07-27T14:27:18.159Z,22.30
2022-07-27T14:29:56.496Z,22.30
2022-07-27T14:32:23.223Z,22.30
2022-07-27T14:34:49.834Z,22.30
2022-07-27T14:37:17.234Z,22.30
2022-07-27T14:39:43.996Z,22.30
2022-07-27T14:42:10.838Z,22.30
2022-07-27T14:44:37.660Z,22.30
2022-07-27T14:47:04.313Z,22.30
2022-07-27T14:49:31.114Z,22.30
2022-07-27T14:51:57.772Z,22.30
2022-07-27T14:54:24.414Z,22.20
2022-07-27T14:56:51.060Z,22.20
2022-07-27T14:59:17.950Z,22.20
2022-07-27T15:01:45.016Z,22.20
2022-07-27T15:04:11.782Z,22.20
2022-07-27T15:06:39.356Z,22.20
2022-07-27T15:09:07.563Z,22.30
2022-07-27T15:11:34.428Z,22.30
2022-07-27T15:14:01.169Z,22.30
2022-07-27T15:16:32.191Z,22.30
2022-07-27T15:18:59.201Z,22.10
2022-07-27T15:21:26.633Z,22.20
2022-07-27T15:23:53.453Z,22.30
2022-07-27T15:26:20.103Z,22.20
2022-07-27T15:28:46.736Z,22.20
2022-07-27T15:31:13.861Z,22.20
2022-07-27T15:33:40.683Z,22.20
2022-07-27T15:36:07.454Z,22.20
2022-07-27T15:38:34.141Z,22.20
2022-07-27T15:41:00.794Z,22.20
2022-07-27T15:43:27.627Z,22.20
2022-07-27T15:45:54.557Z,22.20
2022-07-27T15:48:21.414Z,22.20
2022-07-27T15:50:51.144Z,22.20
2022-07-27T15:53:20.650Z,22.20
2022-07-27T15:55:48.123Z,22.30
2022-07-27T15:58:17.831Z,22.30
2022-07-27T16:00:46.388Z,22.20
2022-07-27T16:03:14.899Z,22.30
2022-07-27T16:05:42.869Z,22.20
2022-07-27T16:08:10.417Z,22.20
2022-07-27T16:10:41.823Z,22.20
2022-07-27T16:13:10.269Z,22.20
2022-07-27T16:15:56.430Z,22.20
2022-07-27T16:18:23.417Z,22.20
2022-07-27T16:20:50.571Z,22.20
2022-07-27T16:23:21.214Z,22.20
2022-07-27T16:26:04.642Z,22.10
2022-07-27T16:28:34.531Z,22.10
2022-07-27T16:31:01.812Z,22.20
2022-07-27T16:33:28.736Z,22.30
2022-07-27T16:35:55.386Z,22.30
2022-07-27T16:38:22.089Z,22.30
2022-07-27T16:40:48.713Z,22.40
2022-07-27T16:43:15.332Z,22.20
2022-07-27T16:45:42.000Z,22.20
2022-07-27T16:48:08.885Z,22.30
2022-07-27T16:50:35.625Z,22.30
2022-07-27T16:53:02.295Z,22.20
2022-07-27T16:55:30.004Z,22.10
2022-07-27T16:57:56.921Z,22.20
2022-07-27T17:00:23.550Z,22.10
2022-07-27T17:02:50.565Z,22.10
2022-07-27T17:05:17.305Z,22.20
2022-07-27T17:07:44.062Z,22.30
2022-07-27T17:10:10.766Z,22.20
2022-07-27T17:12:39.232Z,22.30
2022-07-27T17:15:07.304Z,22.30
2022-07-27T17:17:34.440Z,22.30
2022-07-27T17:20:01.282Z,22.30
2022-07-27T17:22:28.112Z,22.30
2022-07-27T17:24:54.718Z,22.30
2022-07-27T17:27:21.877Z,22.30
2022-07-27T17:29:49.139Z,22.30
2022-07-27T17:32:15.872Z,22.30
2022-07-27T17:34:43.372Z,22.30
2022-07-27T17:37:10.034Z,22.30
2022-07-27T17:39:36.721Z,22.20
2022-07-27T17:42:04.374Z,22.30
2022-07-27T17:44:32.282Z,22.30
2022-07-27T17:47:00.827Z,22.20
2022-07-27T17:49:28.054Z,22.30
2022-07-27T17:51:54.809Z,22.20
2022-07-27T17:54:22.656Z,22.20
2022-07-27T17:56:49.322Z,22.20
2022-07-27T17:59:36.445Z,22.20
2022-07-27T18:02:04.736Z,22.10
2022-07-27T18:04:35.618Z,22.20
2022-07-27T18:07:05.511Z,22.10
2022-07-27T18:09:32.163Z,22.20
2022-07-27T18:11:58.966Z,22.30
2022-07-27T18:14:25.738Z,22.30
2022-07-27T18:16:52.413Z,22.10
2022-07-27T18:19:19.168Z,22.10
2022-07-27T18:21:45.876Z,22.00
2022-07-27T18:24:12.561Z,22.10
2022-07-27T18:26:39.228Z,22.20
2022-07-27T18:29:06.696Z,22.30
2022-07-27T18:31:33.412Z,22.20
2022-07-27T18:34:02.122Z,22.00
2022-07-27T18:36:29.334Z,22.10
2022-07-27T18:38:56.021Z,22.10
2022-07-27T18:41:24.745Z,22.10
2022-07-27T18:43:51.474Z,22.10
2022-07-27T18:46:20.089Z,22.20
2022-07-27T18:48:47.732Z,22.20
2022-07-27T18:51:15.543Z,22.20
2022-07-27T18:53:44.076Z,22.20
2022-07-27T18:56:11.957Z,22.30
2022-07-27T18:58:38.704Z,22.20
2022-07-27T19:01:05.446Z,22.20
2022-07-27T19:03:32.322Z,22.10
2022-07-27T19:05:58.938Z,22.10
2022-07-27T19:08:25.736Z,22.00
2022-07-27T19:10:52.534Z,22.00
2022-07-27T19:13:19.591Z,22.10
2022-07-27T19:15:46.347Z,22.20
2022-07-27T19:18:13.080Z,22.10
2022-07-27T19:20:39.786Z,22.10
2022-07-27T19:23:06.851Z,22.00
2022-07-27T19:25:34.184Z,22.00
2022-07-27T19:28:02.032Z,22.00
2022-07-27T19:30:28.837Z,21.90
2022-07-27T19:32:56.312Z,21.90
2022-07-27T19:35:23.104Z,22.00
2022-07-27T19:37:49.723Z,21.80
2022-07-27T19:43:04.481Z,21.60
2022-07-27T19:45:31.548Z,21.60
2022-07-27T19:47:59.389Z,21.60
2022-07-27T19:50:26.272Z,21.60
2022-07-27T19:52:53.011Z,21.60
2022-07-27T19:55:19.715Z,21.50
2022-07-27T19:57:46.331Z,21.50
2022-07-27T20:00:13.649Z,21.50
2022-07-27T20:02:40.424Z,21.50
2022-07-27T20:05:07.690Z,21.40
2022-07-27T20:07:34.451Z,21.40
2022-07-27T20:10:01.059Z,21.50
2022-07-27T20:12:27.694Z,21.50
2022-07-27T20:14:54.312Z,21.50
2022-07-27T20:17:20.976Z,21.40
2022-07-27T20:19:47.617Z,21.30
2022-07-27T20:22:14.251Z,21.30
2022-07-27T20:24:40.943Z,21.40
2022-07-27T20:27:07.595Z,21.40
2022-07-27T20:29:34.265Z,21.40
2022-07-27T20:32:00.913Z,21.30
2022-07-27T20:34:27.582Z,21.50
2022-07-27T20:36:55.306Z,21.50
2022-07-27T20:39:23.512Z,21.40
2022-07-27T20:41:50.534Z,21.30
2022-07-27T20:44:17.297Z,21.00
2022-07-27T20:46:43.912Z,20.90
2022-07-27T20:49:10.940Z,20.80
2022-07-27T20:51:39.234Z,20.70
2022-07-27T20:54:05.916Z,20.80
2022-07-27T20:56:32.538Z,20.70
2022-07-27T20:58:59.341Z,20.60
2022-07-27T21:01:26.020Z,20.50
2022-07-27T21:03:52.674Z,20.40
2022-07-27T21:06:19.513Z,20.40
2022-07-27T21:08:46.990Z,20.40
2022-07-27T21:11:13.874Z,20.40
2022-07-27T21:13:40.862Z,20.30
2022-07-27T21:16:07.686Z,20.20
2022-07-27T21:18:34.472Z,20.10
2022-07-27T21:21:01.151Z,20.10
2022-07-27T21:23:46.296Z,20.10
2022-07-27T21:26:15.420Z,20.10
2022-07-27T21:28:44.865Z,20.10
2022-07-27T21:31:11.566Z,20.00
2022-07-27T21:33:40.010Z,20.10
2022-07-27T21:36:07.159Z,20.10
2022-07-27T21:38:33.908Z,20.00
2022-07-27T21:41:00.722Z,20.00
2022-07-27T21:43:27.377Z,20.00
2022-07-27T21:45:54.045Z,20.10
2022-07-27T21:48:20.693Z,20.10
2022-07-27T21:50:47.344Z,20.10
2022-07-27T21:53:13.970Z,20.10
2022-07-27T21:55:40.978Z,20.10
2022-07-27T21:58:09.930Z,20.00
2022-07-27T22:00:37.845Z,20.00
2022-07-27T22:03:05.672Z,20.00
2022-07-27T22:05:32.304Z,19.90
2022-07-27T22:08:01.905Z,20.00
2022-07-27T22:10:31.897Z,19.90
2022-07-27T22:12:58.774Z,19.90
2022-07-27T22:15:26.820Z,19.90
2022-07-27T22:17:53.984Z,19.80
2022-07-27T22:20:21.916Z,19.90
2022-07-27T22:22:49.946Z,19.90
2022-07-27T22:25:17.605Z,20.00
2022-07-27T22:27:44.552Z,19.90
2022-07-27T22:30:11.353Z,19.90
2022-07-27T22:32:38.335Z,19.90
2022-07-27T22:35:05.611Z,20.00
2022-07-27T22:37:32.232Z,20.00
2022-07-27T22:39:59.028Z,20.00
2022-07-27T22:42:25.649Z,20.00
2022-07-27T22:44:52.315Z,20.20
2022-07-27T22:47:18.988Z,20.20
2022-07-27T22:49:45.613Z,20.20
2022-07-27T22:52:12.349Z,20.10
2022-07-27T22:54:39.172Z,20.10
2022-07-27T22:57:06.285Z,20.00
2022-07-27T22:59:34.505Z,20.00
2022-07-27T23:02:01.616Z,20.00
2022-07-27T23:04:28.387Z,20.00
2022-07-27T23:06:55.219Z,19.90
2022-07-27T23:09:23.057Z,19.90
2022-07-27T23:11:50.354Z,20.00
2022-07-27T23:14:18.679Z,19.90
2022-07-27T23:16:45.857Z,19.80
2022-07-27T23:19:12.625Z,20.00
2022-07-27T23:21:39.629Z,19.90
2022-07-27T23:24:09.253Z,19.90
2022-07-27T23:26:36.597Z,19.90
2022-07-27T23:29:03.372Z,20.00
2022-07-27T23:31:30.257Z,19.90
2022-07-27T23:33:56.933Z,19.90
2022-07-27T23:36:23.531Z,19.90
2022-07-27T23:38:50.169Z,19.80
2022-07-27T23:41:17.080Z,19.80
2022-07-27T23:43:43.953Z,19.80
2022-07-27T23:46:10.692Z,19.70
2022-07-27T23:48:37.489Z,19.70
2022-07-27T23:51:04.145Z,19.70
2022-07-27T23:53:30.783Z,19.70
2022-07-27T23:55:58.252Z,19.60
2022-07-27T23:58:24.868Z,19.50
